Terminal Aerodrome Forecast
Issued by NWS Detroit/Pontiac, MI

Home | Current Version | Previous Version | Text Only | Print | Product List | Glossary On
Versions: 1 2 3 4 5 6 7 8 9 10 11 12 13 14 15 16 17 18 19 20
638
FTUS43 KDTX 251120
TAFFNT
TAF
KFNT 251120Z 2512/2612 26010KT P6SM SCT060
     FM251500 27015G25KT P6SM SCT060
     FM251700 27015G25KT P6SM -SHRA BKN045
      TEMPO 2517/2521 4SM SHRA OVC040
     FM260100 26006KT P6SM OVC040=

USA.gov is the U.S. government's official web portal to all federal, state and local government web resources and services.